createdAt,value
2019-04-23T12:04:24.950Z,32.90
2019-04-23T12:07:09.450Z,34.10
2019-04-23T12:09:53.650Z,34.20
2019-04-23T12:12:23.521Z,33.10
2019-04-23T12:17:38.098Z,33.10
2019-04-23T12:22:51.831Z,33.60
2019-04-23T12:25:21.256Z,32.90
2019-04-23T12:27:42.304Z,32.20
2019-04-23T12:30:17.247Z,31.90
2019-04-23T12:35:29.218Z,31.80
2019-04-23T12:37:54.632Z,31.40
2019-04-23T12:45:38.767Z,31.50
2019-04-23T12:53:19.625Z,30.50
2019-04-23T12:55:39.080Z,31.00
2019-04-23T12:58:03.527Z,29.90
2019-04-23T13:00:48.067Z,31.10
2019-04-23T13:03:08.577Z,30.60
2019-04-23T13:05:32.675Z,31.10
2019-04-23T13:08:22.680Z,30.50
2019-04-23T13:18:17.139Z,29.60
2019-04-23T13:20:42.333Z,29.10
2019-04-23T13:23:22.126Z,29.10
2019-04-23T13:26:04.050Z,28.00
2019-04-23T13:28:38.839Z,28.50
2019-04-23T13:31:10.681Z,28.50
2019-04-23T13:33:48.569Z,27.60
2019-04-23T13:36:18.861Z,27.80
2019-04-23T13:38:54.985Z,27.10
2019-04-23T13:43:45.744Z,27.70
2019-04-23T13:46:14.915Z,26.50
2019-04-23T13:48:41.674Z,26.60
2019-04-23T13:51:34.199Z,26.50
2019-04-23T13:54:13.866Z,25.70
2019-04-23T13:56:47.938Z,26.40
2019-04-23T13:58:54.998Z,27.40
2019-04-23T14:03:59.563Z,25.60
2019-04-23T14:06:36.507Z,26.20
2019-04-23T14:09:17.425Z,25.50
2019-04-23T14:14:35.591Z,26.30
2019-04-23T14:19:04.613Z,25.30
2019-04-23T14:21:40.625Z,26.10
2019-04-23T14:24:19.858Z,25.10
2019-04-23T14:26:38.350Z,25.90
2019-04-23T14:29:13.118Z,25.30
2019-04-23T14:31:45.631Z,25.10
2019-04-23T14:34:40.863Z,25.30
2019-04-23T14:36:52.193Z,26.20
2019-04-23T14:39:32.127Z,25.40
2019-04-23T14:41:54.087Z,26.50
2019-04-23T14:44:25.801Z,25.90
2019-04-23T14:47:09.108Z,25.50
2019-04-23T14:49:45.425Z,25.30
2019-04-23T14:52:14.461Z,25.20
2019-04-23T14:55:22.658Z,25.70
2019-04-23T14:57:24.794Z,25.60
2019-04-23T15:00:00.088Z,25.60
2019-04-23T15:02:26.356Z,26.50
2019-04-23T15:07:31.759Z,25.30
2019-04-23T15:10:03.018Z,26.00
2019-04-23T15:17:28.462Z,26.00
2019-04-23T15:20:03.040Z,26.20
2019-04-23T15:22:42.431Z,25.50
2019-04-23T15:27:38.566Z,25.60
2019-04-23T15:30:09.033Z,26.40
2019-04-23T15:35:27.910Z,26.20
2019-04-23T15:38:12.430Z,26.00
2019-04-23T15:40:16.476Z,26.70
2019-04-23T15:42:51.883Z,26.60
2019-04-23T16:02:22.550Z,26.90
2019-04-23T16:04:53.149Z,27.00
2019-04-23T16:07:42.594Z,28.00
2019-04-23T16:10:22.026Z,27.70
2019-04-23T16:12:56.406Z,28.10
2019-04-23T16:15:19.652Z,28.40
2019-04-23T16:18:37.318Z,28.30
2019-04-23T16:21:05.041Z,28.50
2019-04-23T16:23:33.726Z,28.70
2019-04-23T16:26:01.163Z,28.80
2019-04-23T16:28:53.415Z,28.40
2019-04-23T16:31:15.017Z,28.20
2019-04-23T16:33:47.046Z,28.70
2019-04-23T16:36:20.817Z,29.50
2019-04-23T16:38:45.283Z,30.00
2019-04-23T16:41:19.685Z,30.30
2019-04-23T16:43:59.883Z,30.70
2019-04-23T16:46:21.939Z,30.10
2019-04-23T16:48:58.186Z,31.50
2019-04-23T16:51:25.199Z,31.90
2019-04-23T16:53:53.645Z,31.60
2019-04-23T16:56:57.214Z,30.90
2019-04-23T16:59:15.407Z,31.60
2019-04-23T17:01:21.302Z,31.70
2019-04-23T17:04:03.824Z,31.60
2019-04-23T17:06:30.887Z,32.50
2019-04-23T17:11:48.416Z,31.30
2019-04-23T17:16:34.228Z,31.60
2019-04-23T17:19:14.643Z,32.00
2019-04-23T17:24:14.627Z,32.80
2019-04-23T17:26:37.351Z,32.80
2019-04-23T17:34:23.667Z,32.90
2019-04-23T17:36:55.887Z,33.40
2019-04-23T17:39:36.961Z,33.60
2019-04-23T17:42:28.974Z,32.40
2019-04-23T17:45:21.117Z,32.50
2019-04-23T17:47:43.833Z,31.90
2019-04-23T17:50:14.345Z,31.80
2019-04-23T17:52:44.333Z,31.40
2019-04-23T17:55:16.726Z,32.90
2019-04-23T17:57:44.559Z,32.40
2019-04-23T18:05:16.785Z,35.40
2019-04-23T18:15:17.518Z,35.20
2019-04-23T18:17:57.164Z,37.80
2019-04-23T18:20:52.164Z,36.70
2019-04-23T18:25:51.604Z,38.20
2019-04-23T18:28:19.065Z,38.60
2019-04-23T18:31:13.003Z,39.40
2019-04-23T18:36:18.379Z,38.80
2019-04-23T18:39:01.502Z,39.10
2019-04-23T18:41:26.156Z,39.60
2019-04-23T18:44:06.033Z,39.80
2019-04-23T18:48:52.784Z,40.50
2019-04-23T18:51:37.278Z,39.90
2019-04-23T18:54:11.057Z,40.20
2019-04-23T18:56:51.735Z,40.10
2019-04-23T18:59:12.045Z,40.50
2019-04-23T19:02:05.159Z,40.70
2019-04-23T19:04:50.951Z,41.90
2019-04-23T19:07:50.186Z,40.90
2019-04-23T19:17:50.508Z,43.00
2019-04-23T19:20:37.695Z,43.20
2019-04-23T19:23:04.606Z,43.20
2019-04-23T19:27:55.738Z,44.10
2019-04-23T19:30:44.681Z,43.70
2019-04-23T19:33:16.357Z,44.70
2019-04-23T19:38:11.133Z,44.80
2019-04-23T19:40:51.833Z,45.40
2019-04-23T19:43:19.436Z,44.60
2019-04-23T19:45:56.729Z,44.90
2019-04-23T19:51:00.304Z,46.10
2019-04-23T19:53:25.901Z,45.40
2019-04-23T19:56:05.596Z,45.00
2019-04-23T19:58:31.137Z,44.90
2019-04-23T20:01:10.304Z,45.50
2019-04-23T22:54:07.032Z,55.10
2019-04-23T22:56:43.994Z,55.80
2019-04-23T23:01:50.444Z,56.30
2019-04-23T23:04:13.695Z,56.40
2019-04-23T23:09:35.740Z,56.50
2019-04-23T23:11:49.078Z,56.70
2019-04-23T23:19:22.222Z,58.10
2019-04-23T23:24:18.215Z,58.00
2019-04-23T23:29:20.815Z,58.40
2019-04-23T23:34:25.636Z,58.80
2019-04-23T23:37:05.443Z,59.70
2019-04-23T23:39:28.890Z,59.80
2019-04-23T23:42:05.858Z,60.30
2019-04-23T23:47:16.305Z,60.70
2019-04-23T23:49:37.613Z,60.60
2019-04-23T23:52:03.330Z,60.80
2019-04-23T23:54:54.291Z,60.80
2019-04-23T23:57:16.996Z,61.20
